sensor_id;sensor_type;location;lat;lon;timestamp;P1;durP1;ratioP1;P2;durP2;ratioP2
27804;SDS011;15183;51.350;11.102;2022-09-09T00:04:55;3.67;;;1.05;;
27804;SDS011;15183;51.350;11.102;2022-09-09T00:07:47;1.20;;;0.90;;
27804;SDS011;15183;51.350;11.102;2022-09-09T00:13:05;1.52;;;0.90;;
27804;SDS011;15183;51.350;11.102;2022-09-09T00:21:51;1.08;;;0.77;;
27804;SDS011;15183;51.350;11.102;2022-09-09T00:27:31;3.38;;;1.17;;
27804;SDS011;15183;51.350;11.102;2022-09-09T00:30:23;6.13;;;0.75;;
27804;SDS011;15183;51.350;11.102;2022-09-09T00:33:00;5.32;;;0.90;;
27804;SDS011;15183;51.350;11.102;2022-09-09T00:35:38;0.88;;;0.65;;
27804;SDS011;15183;51.350;11.102;2022-09-09T00:38:14;3.72;;;0.70;;
27804;SDS011;15183;51.350;11.102;2022-09-09T00:40:55;1.60;;;0.57;;
27804;SDS011;15183;51.350;11.102;2022-09-09T00:43:35;1.63;;;0.70;;
27804;SDS011;15183;51.350;11.102;2022-09-09T00:58:14;0.70;;;0.70;;
27804;SDS011;15183;51.350;11.102;2022-09-09T01:00:45;1.83;;;0.60;;
27804;SDS011;15183;51.350;11.102;2022-09-09T01:12:16;1.98;;;0.60;;
27804;SDS011;15183;51.350;11.102;2022-09-09T01:14:49;2.55;;;0.80;;
27804;SDS011;15183;51.350;11.102;2022-09-09T01:17:27;3.00;;;1.10;;
27804;SDS011;15183;51.350;11.102;2022-09-09T01:20:23;2.10;;;0.70;;
27804;SDS011;15183;51.350;11.102;2022-09-09T01:28:11;1.83;;;0.55;;
27804;SDS011;15183;51.350;11.102;2022-09-09T01:30:45;5.13;;;0.70;;
27804;SDS011;15183;51.350;11.102;2022-09-09T01:33:15;0.98;;;0.57;;
27804;SDS011;15183;51.350;11.102;2022-09-09T01:38:37;1.30;;;0.60;;
27804;SDS011;15183;51.350;11.102;2022-09-09T01:41:05;2.22;;;0.80;;
27804;SDS011;15183;51.350;11.102;2022-09-09T01:43:31;1.45;;;0.70;;
27804;SDS011;15183;51.350;11.102;2022-09-09T01:46:01;1.60;;;0.50;;
27804;SDS011;15183;51.350;11.102;2022-09-09T01:48:31;5.43;;;0.75;;
27804;SDS011;15183;51.350;11.102;2022-09-09T01:50:58;1.23;;;0.68;;
27804;SDS011;15183;51.350;11.102;2022-09-09T01:53:25;2.65;;;1.33;;
27804;SDS011;15183;51.350;11.102;2022-09-09T01:55:57;3.30;;;0.73;;
27804;SDS011;15183;51.350;11.102;2022-09-09T02:01:09;1.88;;;0.75;;
27804;SDS011;15183;51.350;11.102;2022-09-09T02:03:58;1.27;;;0.70;;
27804;SDS011;15183;51.350;11.102;2022-09-09T02:06:43;1.40;;;0.55;;
27804;SDS011;15183;51.350;11.102;2022-09-09T02:09:13;0.70;;;0.57;;
27804;SDS011;15183;51.350;11.102;2022-09-09T02:11:48;0.63;;;0.60;;
27804;SDS011;15183;51.350;11.102;2022-09-09T02:14:23;5.82;;;0.60;;
27804;SDS011;15183;51.350;11.102;2022-09-09T02:17:03;2.00;;;0.70;;
27804;SDS011;15183;51.350;11.102;2022-09-09T02:22:23;0.73;;;0.63;;
27804;SDS011;15183;51.350;11.102;2022-09-09T02:24:54;1.33;;;0.90;;
27804;SDS011;15183;51.350;11.102;2022-09-09T02:27:24;1.70;;;0.57;;
27804;SDS011;15183;51.350;11.102;2022-09-09T02:29:51;1.77;;;0.70;;
27804;SDS011;15183;51.350;11.102;2022-09-09T02:32:22;4.10;;;0.77;;
27804;SDS011;15183;51.350;11.102;2022-09-09T02:34:51;1.65;;;0.70;;
27804;SDS011;15183;51.350;11.102;2022-09-09T02:37:24;0.75;;;0.68;;
27804;SDS011;15183;51.350;11.102;2022-09-09T02:39:56;0.85;;;0.50;;
27804;SDS011;15183;51.350;11.102;2022-09-09T02:42:22;1.33;;;0.52;;
27804;SDS011;15183;51.350;11.102;2022-09-09T02:44:49;1.17;;;0.70;;
27804;SDS011;15183;51.350;11.102;2022-09-09T02:50:34;1.98;;;0.65;;
27804;SDS011;15183;51.350;11.102;2022-09-09T02:56:16;0.75;;;0.50;;
27804;SDS011;15183;51.350;11.102;2022-09-09T02:58:47;1.42;;;0.60;;
27804;SDS011;15183;51.350;11.102;2022-09-09T03:01:15;3.83;;;0.70;;
27804;SDS011;15183;51.350;11.102;2022-09-09T03:03:42;1.02;;;0.52;;
27804;SDS011;15183;51.350;11.102;2022-09-09T03:06:09;0.80;;;0.55;;
27804;SDS011;15183;51.350;11.102;2022-09-09T03:08:37;1.92;;;0.60;;
27804;SDS011;15183;51.350;11.102;2022-09-09T03:11:04;1.08;;;0.50;;
27804;SDS011;15183;51.350;11.102;2022-09-09T03:13:30;1.85;;;0.70;;
27804;SDS011;15183;51.350;11.102;2022-09-09T03:15:57;3.00;;;0.70;;
27804;SDS011;15183;51.350;11.102;2022-09-09T03:18:24;0.90;;;0.52;;
27804;SDS011;15183;51.350;11.102;2022-09-09T03:20:51;3.15;;;0.63;;
27804;SDS011;15183;51.350;11.102;2022-09-09T03:23:19;1.13;;;0.70;;
27804;SDS011;15183;51.350;11.102;2022-09-09T03:25:47;2.38;;;0.73;;
27804;SDS011;15183;51.350;11.102;2022-09-09T03:28:15;3.33;;;0.77;;
27804;SDS011;15183;51.350;11.102;2022-09-09T03:30:42;2.28;;;0.80;;
27804;SDS011;15183;51.350;11.102;2022-09-09T03:33:08;1.95;;;0.75;;
27804;SDS011;15183;51.350;11.102;2022-09-09T03:35:35;2.45;;;0.70;;
27804;SDS011;15183;51.350;11.102;2022-09-09T03:38:02;3.17;;;0.85;;
27804;SDS011;15183;51.350;11.102;2022-09-09T03:40:28;1.10;;;0.50;;
27804;SDS011;15183;51.350;11.102;2022-09-09T03:42:56;2.70;;;0.70;;
27804;SDS011;15183;51.350;11.102;2022-09-09T03:45:23;1.00;;;0.70;;
27804;SDS011;15183;51.350;11.102;2022-09-09T03:47:49;1.85;;;0.60;;
27804;SDS011;15183;51.350;11.102;2022-09-09T03:50:15;1.50;;;0.75;;
27804;SDS011;15183;51.350;11.102;2022-09-09T03:52:44;3.45;;;1.08;;
27804;SDS011;15183;51.350;11.102;2022-09-09T03:55:10;2.38;;;0.60;;
27804;SDS011;15183;51.350;11.102;2022-09-09T03:57:36;2.38;;;0.93;;
27804;SDS011;15183;51.350;11.102;2022-09-09T04:00:04;2.25;;;0.70;;
27804;SDS011;15183;51.350;11.102;2022-09-09T04:02:32;4.28;;;0.77;;
27804;SDS011;15183;51.350;11.102;2022-09-09T04:04:59;2.53;;;0.80;;
27804;SDS011;15183;51.350;11.102;2022-09-09T04:07:25;2.22;;;0.70;;
27804;SDS011;15183;51.350;11.102;2022-09-09T04:09:53;2.40;;;0.80;;
27804;SDS011;15183;51.350;11.102;2022-09-09T04:12:20;0.65;;;0.60;;
27804;SDS011;15183;51.350;11.102;2022-09-09T04:14:47;1.95;;;0.70;;
27804;SDS011;15183;51.350;11.102;2022-09-09T04:17:14;2.58;;;0.70;;
27804;SDS011;15183;51.350;11.102;2022-09-09T04:19:41;1.92;;;0.70;;
27804;SDS011;15183;51.350;11.102;2022-09-09T04:22:10;1.80;;;0.52;;
27804;SDS011;15183;51.350;11.102;2022-09-09T04:24:36;1.92;;;0.80;;
27804;SDS011;15183;51.350;11.102;2022-09-09T04:27:03;1.00;;;0.50;;
27804;SDS011;15183;51.350;11.102;2022-09-09T04:29:30;0.88;;;0.50;;
27804;SDS011;15183;51.350;11.102;2022-09-09T04:31:56;1.85;;;0.70;;
27804;SDS011;15183;51.350;11.102;2022-09-09T04:34:22;1.98;;;0.68;;
27804;SDS011;15183;51.350;11.102;2022-09-09T04:36:49;1.10;;;0.60;;
27804;SDS011;15183;51.350;11.102;2022-09-09T04:39:17;0.95;;;0.55;;
27804;SDS011;15183;51.350;11.102;2022-09-09T04:41:45;1.58;;;1.20;;
27804;SDS011;15183;51.350;11.102;2022-09-09T04:44:12;1.13;;;0.60;;
27804;SDS011;15183;51.350;11.102;2022-09-09T04:46:38;2.90;;;0.82;;
27804;SDS011;15183;51.350;11.102;2022-09-09T04:49:06;2.30;;;0.75;;
27804;SDS011;15183;51.350;11.102;2022-09-09T04:51:33;1.85;;;0.68;;
27804;SDS011;15183;51.350;11.102;2022-09-09T04:53:59;2.88;;;0.70;;
27804;SDS011;15183;51.350;11.102;2022-09-09T04:56:26;3.15;;;0.90;;
27804;SDS011;15183;51.350;11.102;2022-09-09T04:58:52;1.48;;;0.68;;
27804;SDS011;15183;51.350;11.102;2022-09-09T05:01:20;6.05;;;0.73;;
27804;SDS011;15183;51.350;11.102;2022-09-09T05:03:48;3.03;;;0.82;;
27804;SDS011;15183;51.350;11.102;2022-09-09T05:06:19;0.95;;;0.65;;
27804;SDS011;15183;51.350;11.102;2022-09-09T05:08:47;0.73;;;0.65;;
27804;SDS011;15183;51.350;11.102;2022-09-09T05:11:28;3.72;;;0.82;;
27804;SDS011;15183;51.350;11.102;2022-09-09T05:13:57;6.82;;;0.70;;
27804;SDS011;15183;51.350;11.102;2022-09-09T05:16:24;1.33;;;0.60;;
27804;SDS011;15183;51.350;11.102;2022-09-09T05:18:50;1.73;;;0.90;;
27804;SDS011;15183;51.350;11.102;2022-09-09T05:21:17;2.15;;;1.05;;
27804;SDS011;15183;51.350;11.102;2022-09-09T05:23:46;3.22;;;0.90;;
27804;SDS011;15183;51.350;11.102;2022-09-09T05:26:13;1.73;;;0.70;;
27804;SDS011;15183;51.350;11.102;2022-09-09T05:28:42;2.45;;;0.95;;
27804;SDS011;15183;51.350;11.102;2022-09-09T05:31:09;2.03;;;0.70;;
27804;SDS011;15183;51.350;11.102;2022-09-09T05:33:38;1.77;;;0.70;;
27804;SDS011;15183;51.350;11.102;2022-09-09T05:36:12;2.33;;;0.77;;
27804;SDS011;15183;51.350;11.102;2022-09-09T05:38:41;1.75;;;0.80;;
27804;SDS011;15183;51.350;11.102;2022-09-09T05:41:08;2.10;;;0.82;;
27804;SDS011;15183;51.350;11.102;2022-09-09T05:43:41;0.80;;;0.73;;
27804;SDS011;15183;51.350;11.102;2022-09-09T05:46:20;2.83;;;1.10;;
27804;SDS011;15183;51.350;11.102;2022-09-09T05:48:49;3.85;;;0.90;;
27804;SDS011;15183;51.350;11.102;2022-09-09T05:51:18;1.40;;;0.68;;
27804;SDS011;15183;51.350;11.102;2022-09-09T05:53:50;2.17;;;1.00;;
27804;SDS011;15183;51.350;11.102;2022-09-09T05:56:17;2.38;;;0.80;;
27804;SDS011;15183;51.350;11.102;2022-09-09T05:58:51;2.83;;;0.80;;
27804;SDS011;15183;51.350;11.102;2022-09-09T06:03:49;1.98;;;0.88;;
27804;SDS011;15183;51.350;11.102;2022-09-09T06:06:20;6.05;;;1.38;;
27804;SDS011;15183;51.350;11.102;2022-09-09T06:08:52;2.92;;;1.08;;
27804;SDS011;15183;51.350;11.102;2022-09-09T06:11:23;4.78;;;2.10;;
27804;SDS011;15183;51.350;11.102;2022-09-09T06:13:52;4.50;;;2.47;;
27804;SDS011;15183;51.350;11.102;2022-09-09T06:16:23;6.65;;;4.53;;
27804;SDS011;15183;51.350;11.102;2022-09-09T06:18:52;4.43;;;2.65;;
27804;SDS011;15183;51.350;11.102;2022-09-09T06:21:21;6.13;;;3.47;;
27804;SDS011;15183;51.350;11.102;2022-09-09T06:23:55;4.87;;;2.27;;
27804;SDS011;15183;51.350;11.102;2022-09-09T06:26:23;4.47;;;2.33;;
27804;SDS011;15183;51.350;11.102;2022-09-09T06:28:56;3.38;;;1.90;;
27804;SDS011;15183;51.350;11.102;2022-09-09T06:31:25;3.08;;;1.70;;
27804;SDS011;15183;51.350;11.102;2022-09-09T06:33:56;2.40;;;1.20;;
27804;SDS011;15183;51.350;11.102;2022-09-09T06:36:25;3.10;;;1.55;;
27804;SDS011;15183;51.350;11.102;2022-09-09T06:38:57;1.48;;;0.82;;
27804;SDS011;15183;51.350;11.102;2022-09-09T06:41:25;2.42;;;0.88;;
27804;SDS011;15183;51.350;11.102;2022-09-09T06:43:54;2.35;;;0.73;;
27804;SDS011;15183;51.350;11.102;2022-09-09T06:46:25;3.65;;;1.20;;
27804;SDS011;15183;51.350;11.102;2022-09-09T06:48:53;3.22;;;1.10;;
27804;SDS011;15183;51.350;11.102;2022-09-09T06:51:22;1.95;;;1.27;;
27804;SDS011;15183;51.350;11.102;2022-09-09T06:53:52;1.85;;;1.00;;
27804;SDS011;15183;51.350;11.102;2022-09-09T06:56:27;1.33;;;1.23;;
27804;SDS011;15183;51.350;11.102;2022-09-09T07:01:27;4.88;;;2.08;;
27804;SDS011;15183;51.350;11.102;2022-09-09T07:03:57;4.32;;;2.70;;
27804;SDS011;15183;51.350;11.102;2022-09-09T07:06:26;1.50;;;1.30;;
27804;SDS011;15183;51.350;11.102;2022-09-09T07:08:59;6.25;;;2.58;;
27804;SDS011;15183;51.350;11.102;2022-09-09T07:11:30;4.18;;;1.63;;
27804;SDS011;15183;51.350;11.102;2022-09-09T07:14:02;2.33;;;1.50;;
27804;SDS011;15183;51.350;11.102;2022-09-09T07:16:29;4.60;;;2.85;;
27804;SDS011;15183;51.350;11.102;2022-09-09T07:18:57;3.33;;;2.15;;
27804;SDS011;15183;51.350;11.102;2022-09-09T07:21:24;4.13;;;2.70;;
27804;SDS011;15183;51.350;11.102;2022-09-09T07:23:52;6.28;;;4.65;;
27804;SDS011;15183;51.350;11.102;2022-09-09T07:26:20;5.38;;;2.55;;
27804;SDS011;15183;51.350;11.102;2022-09-09T07:28:50;3.92;;;2.88;;
27804;SDS011;15183;51.350;11.102;2022-09-09T07:31:18;3.65;;;2.13;;
27804;SDS011;15183;51.350;11.102;2022-09-09T07:33:50;2.33;;;1.30;;
27804;SDS011;15183;51.350;11.102;2022-09-09T07:36:22;1.52;;;1.38;;
27804;SDS011;15183;51.350;11.102;2022-09-09T07:38:53;4.57;;;3.42;;
27804;SDS011;15183;51.350;11.102;2022-09-09T07:41:26;5.82;;;3.08;;
27804;SDS011;15183;51.350;11.102;2022-09-09T07:43:59;6.65;;;3.22;;
27804;SDS011;15183;51.350;11.102;2022-09-09T07:46:41;3.40;;;2.20;;
27804;SDS011;15183;51.350;11.102;2022-09-09T07:49:09;6.53;;;3.75;;
27804;SDS011;15183;51.350;11.102;2022-09-09T07:51:40;2.30;;;1.40;;
27804;SDS011;15183;51.350;11.102;2022-09-09T07:54:11;2.67;;;1.38;;
27804;SDS011;15183;51.350;11.102;2022-09-09T07:56:40;4.82;;;3.83;;
27804;SDS011;15183;51.350;11.102;2022-09-09T07:59:08;8.40;;;5.22;;
27804;SDS011;15183;51.350;11.102;2022-09-09T08:01:39;5.03;;;2.75;;
27804;SDS011;15183;51.350;11.102;2022-09-09T08:04:10;2.03;;;1.35;;
27804;SDS011;15183;51.350;11.102;2022-09-09T08:06:41;3.95;;;1.88;;
27804;SDS011;15183;51.350;11.102;2022-09-09T08:09:13;3.80;;;2.65;;
27804;SDS011;15183;51.350;11.102;2022-09-09T08:11:44;1.25;;;0.98;;
27804;SDS011;15183;51.350;11.102;2022-09-09T08:14:11;9.00;;;3.78;;
27804;SDS011;15183;51.350;11.102;2022-09-09T08:16:42;3.00;;;1.42;;
27804;SDS011;15183;51.350;11.102;2022-09-09T08:19:12;2.42;;;1.10;;
27804;SDS011;15183;51.350;11.102;2022-09-09T08:21:41;4.20;;;2.95;;
27804;SDS011;15183;51.350;11.102;2022-09-09T08:24:09;2.63;;;1.10;;
27804;SDS011;15183;51.350;11.102;2022-09-09T08:26:44;5.85;;;3.42;;
27804;SDS011;15183;51.350;11.102;2022-09-09T08:29:14;2.47;;;1.15;;
27804;SDS011;15183;51.350;11.102;2022-09-09T08:31:51;9.38;;;5.63;;
27804;SDS011;15183;51.350;11.102;2022-09-09T08:34:21;6.10;;;4.22;;
27804;SDS011;15183;51.350;11.102;2022-09-09T08:36:48;6.70;;;4.25;;
27804;SDS011;15183;51.350;11.102;2022-09-09T08:39:17;3.65;;;2.35;;
27804;SDS011;15183;51.350;11.102;2022-09-09T08:47:53;1.88;;;1.30;;
27804;SDS011;15183;51.350;11.102;2022-09-09T08:50:33;3.45;;;1.60;;
27804;SDS011;15183;51.350;11.102;2022-09-09T08:53:05;3.80;;;1.75;;
27804;SDS011;15183;51.350;11.102;2022-09-09T08:55:49;5.25;;;1.40;;
27804;SDS011;15183;51.350;11.102;2022-09-09T08:58:25;3.58;;;1.85;;
27804;SDS011;15183;51.350;11.102;2022-09-09T09:00:57;5.15;;;3.00;;
27804;SDS011;15183;51.350;11.102;2022-09-09T09:11:48;3.63;;;2.30;;
27804;SDS011;15183;51.350;11.102;2022-09-09T09:14:28;7.43;;;2.63;;
27804;SDS011;15183;51.350;11.102;2022-09-09T09:17:00;4.75;;;2.22;;
27804;SDS011;15183;51.350;11.102;2022-09-09T09:19:30;2.95;;;1.80;;
27804;SDS011;15183;51.350;11.102;2022-09-09T09:24:56;2.70;;;1.25;;
27804;SDS011;15183;51.350;11.102;2022-09-09T09:33:49;1.55;;;0.90;;
27804;SDS011;15183;51.350;11.102;2022-09-09T09:36:19;2.97;;;1.00;;
27804;SDS011;15183;51.350;11.102;2022-09-09T09:39:02;2.40;;;1.00;;
27804;SDS011;15183;51.350;11.102;2022-09-09T09:41:31;2.83;;;0.90;;
27804;SDS011;15183;51.350;11.102;2022-09-09T09:44:26;2.88;;;1.00;;
27804;SDS011;15183;51.350;11.102;2022-09-09T09:47:12;2.80;;;1.17;;
27804;SDS011;15183;51.350;11.102;2022-09-09T09:52:22;2.13;;;1.02;;
27804;SDS011;15183;51.350;11.102;2022-09-09T09:54:51;2.58;;;1.17;;
27804;SDS011;15183;51.350;11.102;2022-09-09T09:57:22;3.63;;;0.90;;
27804;SDS011;15183;51.350;11.102;2022-09-09T10:00:00;4.20;;;1.00;;
27804;SDS011;15183;51.350;11.102;2022-09-09T10:02:40;1.98;;;1.20;;
27804;SDS011;15183;51.350;11.102;2022-09-09T10:05:22;1.35;;;0.93;;
27804;SDS011;15183;51.350;11.102;2022-09-09T10:16:31;2.72;;;1.35;;
27804;SDS011;15183;51.350;11.102;2022-09-09T10:19:29;7.25;;;2.25;;
27804;SDS011;15183;51.350;11.102;2022-09-09T10:31:27;3.13;;;1.38;;
27804;SDS011;15183;51.350;11.102;2022-09-09T10:37:05;2.75;;;1.23;;
27804;SDS011;15183;51.350;11.102;2022-09-09T10:46:36;3.78;;;1.65;;
27804;SDS011;15183;51.350;11.102;2022-09-09T10:49:40;2.97;;;1.35;;
27804;SDS011;15183;51.350;11.102;2022-09-09T10:55:14;3.42;;;1.17;;
27804;SDS011;15183;51.350;11.102;2022-09-09T10:57:48;2.63;;;1.13;;
27804;SDS011;15183;51.350;11.102;2022-09-09T11:00:22;2.08;;;1.05;;
27804;SDS011;15183;51.350;11.102;2022-09-09T11:03:19;2.92;;;1.13;;
27804;SDS011;15183;51.350;11.102;2022-09-09T11:05:55;2.13;;;1.05;;
27804;SDS011;15183;51.350;11.102;2022-09-09T11:08:32;2.42;;;1.00;;
27804;SDS011;15183;51.350;11.102;2022-09-09T11:17:09;2.63;;;0.93;;
27804;SDS011;15183;51.350;11.102;2022-09-09T11:19:44;1.85;;;0.68;;
27804;SDS011;15183;51.350;11.102;2022-09-09T11:25:05;2.95;;;1.05;;
27804;SDS011;15183;51.350;11.102;2022-09-09T11:44:40;3.60;;;0.82;;
27804;SDS011;15183;51.350;11.102;2022-09-09T11:47:27;3.40;;;0.70;;
27804;SDS011;15183;51.350;11.102;2022-09-09T11:50:10;9.10;;;1.02;;
27804;SDS011;15183;51.350;11.102;2022-09-09T11:53:14;2.67;;;0.77;;
27804;SDS011;15183;51.350;11.102;2022-09-09T11:55:59;1.17;;;0.50;;
27804;SDS011;15183;51.350;11.102;2022-09-09T11:58:33;2.17;;;0.73;;
27804;SDS011;15183;51.350;11.102;2022-09-09T12:01:26;2.25;;;0.70;;
27804;SDS011;15183;51.350;11.102;2022-09-09T12:07:05;3.20;;;0.80;;
27804;SDS011;15183;51.350;11.102;2022-09-09T12:10:23;2.10;;;0.60;;
27804;SDS011;15183;51.350;11.102;2022-09-09T12:13:18;1.15;;;0.57;;
27804;SDS011;15183;51.350;11.102;2022-09-09T12:15:47;1.38;;;0.50;;
27804;SDS011;15183;51.350;11.102;2022-09-09T12:18:51;1.58;;;0.60;;
27804;SDS011;15183;51.350;11.102;2022-09-09T12:21:17;2.35;;;0.50;;
27804;SDS011;15183;51.350;11.102;2022-09-09T12:24:01;3.22;;;0.68;;
27804;SDS011;15183;51.350;11.102;2022-09-09T12:26:34;2.30;;;0.73;;
27804;SDS011;15183;51.350;11.102;2022-09-09T12:29:24;1.65;;;0.50;;
27804;SDS011;15183;51.350;11.102;2022-09-09T12:32:15;1.92;;;0.52;;
27804;SDS011;15183;51.350;11.102;2022-09-09T12:34:59;2.08;;;0.50;;
27804;SDS011;15183;51.350;11.102;2022-09-09T12:37:50;3.47;;;0.50;;
27804;SDS011;15183;51.350;11.102;2022-09-09T12:40:24;1.50;;;0.65;;
27804;SDS011;15183;51.350;11.102;2022-09-09T12:43:01;3.00;;;0.60;;
27804;SDS011;15183;51.350;11.102;2022-09-09T12:45:42;0.75;;;0.30;;
27804;SDS011;15183;51.350;11.102;2022-09-09T12:48:10;1.70;;;0.60;;
27804;SDS011;15183;51.350;11.102;2022-09-09T12:50:45;2.33;;;0.50;;
27804;SDS011;15183;51.350;11.102;2022-09-09T12:53:23;1.58;;;0.40;;
27804;SDS011;15183;51.350;11.102;2022-09-09T12:55:59;2.85;;;0.85;;
27804;SDS011;15183;51.350;11.102;2022-09-09T12:58:45;1.70;;;0.70;;
27804;SDS011;15183;51.350;11.102;2022-09-09T13:01:32;2.60;;;0.82;;
27804;SDS011;15183;51.350;11.102;2022-09-09T13:03:59;2.40;;;0.50;;
27804;SDS011;15183;51.350;11.102;2022-09-09T13:06:27;1.98;;;0.47;;
27804;SDS011;15183;51.350;11.102;2022-09-09T13:08:57;1.70;;;0.55;;
27804;SDS011;15183;51.350;11.102;2022-09-09T13:11:32;1.48;;;0.57;;
27804;SDS011;15183;51.350;11.102;2022-09-09T13:14:27;2.10;;;0.63;;
27804;SDS011;15183;51.350;11.102;2022-09-09T13:17:03;1.40;;;0.50;;
27804;SDS011;15183;51.350;11.102;2022-09-09T13:19:35;0.95;;;0.40;;
27804;SDS011;15183;51.350;11.102;2022-09-09T13:22:21;5.38;;;0.70;;
27804;SDS011;15183;51.350;11.102;2022-09-09T13:27:36;1.92;;;0.60;;
27804;SDS011;15183;51.350;11.102;2022-09-09T13:33:02;1.27;;;0.60;;
27804;SDS011;15183;51.350;11.102;2022-09-09T13:35:30;1.80;;;0.70;;
27804;SDS011;15183;51.350;11.102;2022-09-09T13:37:58;1.05;;;0.50;;
27804;SDS011;15183;51.350;11.102;2022-09-09T13:40:32;2.30;;;0.55;;
27804;SDS011;15183;51.350;11.102;2022-09-09T13:42:58;2.42;;;0.70;;
27804;SDS011;15183;51.350;11.102;2022-09-09T13:45:25;1.92;;;0.63;;
27804;SDS011;15183;51.350;11.102;2022-09-09T13:47:55;1.25;;;0.50;;
27804;SDS011;15183;51.350;11.102;2022-09-09T13:50:25;1.30;;;0.68;;
27804;SDS011;15183;51.350;11.102;2022-09-09T13:52:55;4.40;;;0.60;;
27804;SDS011;15183;51.350;11.102;2022-09-09T13:55:24;1.58;;;0.40;;
27804;SDS011;15183;51.350;11.102;2022-09-09T13:57:56;2.72;;;0.57;;
27804;SDS011;15183;51.350;11.102;2022-09-09T14:00:31;1.45;;;0.55;;
27804;SDS011;15183;51.350;11.102;2022-09-09T14:02:59;1.48;;;0.40;;
27804;SDS011;15183;51.350;11.102;2022-09-09T14:05:27;1.15;;;0.50;;
27804;SDS011;15183;51.350;11.102;2022-09-09T14:07:57;2.13;;;0.70;;
27804;SDS011;15183;51.350;11.102;2022-09-09T14:10:26;1.77;;;0.50;;
27804;SDS011;15183;51.350;11.102;2022-09-09T14:12:52;0.75;;;0.32;;
27804;SDS011;15183;51.350;11.102;2022-09-09T14:15:19;1.58;;;0.50;;
27804;SDS011;15183;51.350;11.102;2022-09-09T14:17:45;1.77;;;0.30;;
27804;SDS011;15183;51.350;11.102;2022-09-09T14:20:12;1.80;;;0.43;;
27804;SDS011;15183;51.350;11.102;2022-09-09T14:22:41;0.52;;;0.40;;
27804;SDS011;15183;51.350;11.102;2022-09-09T14:25:08;0.90;;;0.50;;
27804;SDS011;15183;51.350;11.102;2022-09-09T14:27:34;1.25;;;0.50;;
27804;SDS011;15183;51.350;11.102;2022-09-09T14:30:00;1.98;;;0.45;;
27804;SDS011;15183;51.350;11.102;2022-09-09T14:32:27;1.25;;;0.38;;
27804;SDS011;15183;51.350;11.102;2022-09-09T14:34:54;5.50;;;0.50;;
27804;SDS011;15183;51.350;11.102;2022-09-09T14:37:21;1.55;;;0.50;;
27804;SDS011;15183;51.350;11.102;2022-09-09T14:39:47;1.02;;;0.40;;
27804;SDS011;15183;51.350;11.102;2022-09-09T14:42:16;1.95;;;0.45;;
27804;SDS011;15183;51.350;11.102;2022-09-09T14:44:43;2.88;;;0.60;;
27804;SDS011;15183;51.350;11.102;2022-09-09T14:47:09;1.13;;;0.40;;
27804;SDS011;15183;51.350;11.102;2022-09-09T14:49:36;1.55;;;0.40;;
27804;SDS011;15183;51.350;11.102;2022-09-09T14:52:03;1.25;;;0.38;;
27804;SDS011;15183;51.350;11.102;2022-09-09T14:54:33;0.75;;;0.32;;
27804;SDS011;15183;51.350;11.102;2022-09-09T14:56:59;2.30;;;0.60;;
27804;SDS011;15183;51.350;11.102;2022-09-09T14:59:26;0.82;;;0.25;;
27804;SDS011;15183;51.350;11.102;2022-09-09T15:01:52;1.50;;;0.40;;
27804;SDS011;15183;51.350;11.102;2022-09-09T15:04:19;1.20;;;0.32;;
27804;SDS011;15183;51.350;11.102;2022-09-09T15:06:46;2.55;;;0.40;;
27804;SDS011;15183;51.350;11.102;2022-09-09T15:09:14;1.55;;;0.60;;
27804;SDS011;15183;51.350;11.102;2022-09-09T15:11:41;3.42;;;0.40;;
27804;SDS011;15183;51.350;11.102;2022-09-09T15:14:08;1.08;;;0.40;;
27804;SDS011;15183;51.350;11.102;2022-09-09T15:16:35;0.77;;;0.40;;
27804;SDS011;15183;51.350;11.102;2022-09-09T15:19:02;1.65;;;0.40;;
27804;SDS011;15183;51.350;11.102;2022-09-09T15:21:29;0.50;;;0.35;;
27804;SDS011;15183;51.350;11.102;2022-09-09T15:23:59;1.17;;;0.40;;
27804;SDS011;15183;51.350;11.102;2022-09-09T15:26:26;1.15;;;0.52;;
27804;SDS011;15183;51.350;11.102;2022-09-09T15:28:53;3.30;;;0.38;;
27804;SDS011;15183;51.350;11.102;2022-09-09T15:31:21;0.70;;;0.40;;
27804;SDS011;15183;51.350;11.102;2022-09-09T15:33:54;0.52;;;0.43;;
27804;SDS011;15183;51.350;11.102;2022-09-09T15:36:36;1.45;;;0.68;;
27804;SDS011;15183;51.350;11.102;2022-09-09T15:39:07;0.88;;;0.50;;
27804;SDS011;15183;51.350;11.102;2022-09-09T15:41:41;2.65;;;0.43;;
27804;SDS011;15183;51.350;11.102;2022-09-09T15:44:10;1.13;;;0.50;;
27804;SDS011;15183;51.350;11.102;2022-09-09T15:46:42;1.23;;;0.45;;
27804;SDS011;15183;51.350;11.102;2022-09-09T15:49:12;0.75;;;0.50;;
27804;SDS011;15183;51.350;11.102;2022-09-09T15:51:53;1.23;;;0.45;;
27804;SDS011;15183;51.350;11.102;2022-09-09T15:54:23;2.55;;;0.50;;
27804;SDS011;15183;51.350;11.102;2022-09-09T15:56:52;2.22;;;0.68;;
27804;SDS011;15183;51.350;11.102;2022-09-09T15:59:25;1.48;;;0.52;;
27804;SDS011;15183;51.350;11.102;2022-09-09T16:01:55;3.10;;;1.20;;
27804;SDS011;15183;51.350;11.102;2022-09-09T16:04:22;2.10;;;0.50;;
27804;SDS011;15183;51.350;11.102;2022-09-09T16:06:50;0.70;;;0.50;;
27804;SDS011;15183;51.350;11.102;2022-09-09T16:09:17;0.77;;;0.30;;
27804;SDS011;15183;51.350;11.102;2022-09-09T16:11:45;1.67;;;0.32;;
27804;SDS011;15183;51.350;11.102;2022-09-09T16:14:12;1.67;;;0.80;;
27804;SDS011;15183;51.350;11.102;2022-09-09T16:16:41;0.82;;;0.70;;
27804;SDS011;15183;51.350;11.102;2022-09-09T16:19:09;1.80;;;0.57;;
27804;SDS011;15183;51.350;11.102;2022-09-09T16:21:42;1.67;;;0.52;;
27804;SDS011;15183;51.350;11.102;2022-09-09T16:24:12;1.05;;;0.52;;
27804;SDS011;15183;51.350;11.102;2022-09-09T16:26:44;1.58;;;0.50;;
27804;SDS011;15183;51.350;11.102;2022-09-09T16:29:14;2.08;;;0.77;;
27804;SDS011;15183;51.350;11.102;2022-09-09T16:31:43;0.85;;;0.73;;
27804;SDS011;15183;51.350;11.102;2022-09-09T16:34:14;2.03;;;0.55;;
27804;SDS011;15183;51.350;11.102;2022-09-09T16:36:43;1.92;;;0.82;;
27804;SDS011;15183;51.350;11.102;2022-09-09T16:39:11;1.52;;;0.52;;
27804;SDS011;15183;51.350;11.102;2022-09-09T16:41:43;2.22;;;0.70;;
27804;SDS011;15183;51.350;11.102;2022-09-09T16:44:13;0.77;;;0.52;;
27804;SDS011;15183;51.350;11.102;2022-09-09T16:46:44;1.20;;;0.65;;
27804;SDS011;15183;51.350;11.102;2022-09-09T16:49:14;1.42;;;0.60;;
27804;SDS011;15183;51.350;11.102;2022-09-09T16:51:42;3.00;;;0.70;;
27804;SDS011;15183;51.350;11.102;2022-09-09T16:54:18;3.05;;;0.80;;
27804;SDS011;15183;51.350;11.102;2022-09-09T16:56:46;4.65;;;0.98;;
27804;SDS011;15183;51.350;11.102;2022-09-09T16:59:14;1.17;;;0.70;;
27804;SDS011;15183;51.350;11.102;2022-09-09T17:01:46;1.60;;;0.93;;
27804;SDS011;15183;51.350;11.102;2022-09-09T17:04:16;2.13;;;0.98;;
27804;SDS011;15183;51.350;11.102;2022-09-09T17:06:50;2.50;;;1.20;;
27804;SDS011;15183;51.350;11.102;2022-09-09T17:09:19;1.77;;;1.00;;
27804;SDS011;15183;51.350;11.102;2022-09-09T17:11:48;2.17;;;1.35;;
27804;SDS011;15183;51.350;11.102;2022-09-09T17:14:17;1.73;;;1.10;;
27804;SDS011;15183;51.350;11.102;2022-09-09T17:16:48;1.83;;;1.30;;
27804;SDS011;15183;51.350;11.102;2022-09-09T17:19:15;1.92;;;1.27;;
27804;SDS011;15183;51.350;11.102;2022-09-09T17:21:42;2.05;;;0.80;;
27804;SDS011;15183;51.350;11.102;2022-09-09T17:24:10;3.90;;;1.05;;
27804;SDS011;15183;51.350;11.102;2022-09-09T17:26:37;2.28;;;0.95;;
27804;SDS011;15183;51.350;11.102;2022-09-09T17:29:03;2.38;;;1.30;;
27804;SDS011;15183;51.350;11.102;2022-09-09T17:31:30;3.17;;;1.42;;
27804;SDS011;15183;51.350;11.102;2022-09-09T17:33:58;2.72;;;1.13;;